createdAt,value
2023-05-04T00:00:49.400Z,101490.88
2023-05-04T00:03:21.313Z,101491.23
2023-05-04T00:05:53.287Z,101490.52
2023-05-04T00:08:24.905Z,101489.98
2023-05-04T00:10:57.360Z,101491.23
2023-05-04T00:13:29.233Z,101489.44
2023-05-04T00:16:00.946Z,101488.89
2023-05-04T00:18:32.953Z,101490.33
2023-05-04T00:21:04.682Z,101485.47
2023-05-04T00:23:36.394Z,101488.16
2023-05-04T00:26:08.188Z,101487.42
2023-05-04T00:28:40.417Z,101487.42
2023-05-04T00:31:12.293Z,101485.81
2023-05-04T00:33:43.936Z,101487.06
2023-05-04T00:36:15.743Z,101487.79
2023-05-04T00:38:52.259Z,101485.42
2023-05-04T00:41:24.361Z,101482.35
2023-05-04T00:43:56.388Z,101484.70
2023-05-04T00:46:29.198Z,101481.82
2023-05-04T00:49:02.416Z,101480.02
2023-05-04T00:51:34.676Z,101480.37
2023-05-04T00:54:06.598Z,101483.79
2023-05-04T00:56:42.257Z,101479.45
2023-05-04T00:59:14.490Z,101481.76
2023-05-04T01:01:46.189Z,101486.42
2023-05-04T01:04:18.616Z,101492.70
2023-05-04T01:07:00.410Z,101492.10
2023-05-04T01:09:37.393Z,101483.42
2023-05-04T01:12:13.883Z,101488.63
2023-05-04T01:14:47.762Z,101487.39
2023-05-04T01:17:19.619Z,101490.27
2023-05-04T01:19:53.982Z,101488.29
2023-05-04T01:22:26.665Z,101490.27
2023-05-04T01:24:59.674Z,101492.42
2023-05-04T01:27:38.585Z,101494.24
2023-05-04T01:30:17.896Z,101491.77
2023-05-04T01:32:50.901Z,101493.21
2023-05-04T01:35:23.204Z,101491.94
2023-05-04T01:37:55.910Z,101488.87
2023-05-04T01:40:26.271Z,101490.33
2023-05-04T01:42:58.314Z,101490.87
2023-05-04T01:45:30.908Z,101488.89
2023-05-04T01:48:02.678Z,101487.80
2023-05-04T01:50:34.847Z,101486.36
2023-05-04T01:53:07.782Z,101485.62
2023-05-04T01:55:39.471Z,101486.46
2023-05-04T01:58:11.278Z,101486.42
2023-05-04T02:00:43.024Z,101481.38
2023-05-04T02:03:14.860Z,101477.77
2023-05-04T02:05:46.598Z,101477.60
2023-05-04T02:08:18.277Z,101476.67
2023-05-04T02:10:50.209Z,101479.23
2023-05-04T02:13:22.004Z,101479.82
2023-05-04T02:15:53.814Z,101480.38
2023-05-04T02:18:25.576Z,101480.73
2023-05-04T02:20:57.335Z,101476.57
2023-05-04T02:23:29.662Z,101476.38
2023-05-04T02:26:03.518Z,101479.22
2023-05-04T02:28:35.676Z,101478.13
2023-05-04T02:31:08.089Z,101481.73
2023-05-04T02:33:40.323Z,101476.52
2023-05-04T02:36:13.457Z,101479.90
2023-05-04T02:38:45.120Z,101476.95
2023-05-04T02:41:16.885Z,101479.13
2023-05-04T02:43:49.759Z,101478.06
2023-05-04T02:46:21.718Z,101478.59
2023-05-04T02:48:53.571Z,101481.85
2023-05-04T02:51:25.220Z,101481.63
2023-05-04T02:53:57.012Z,101478.17
2023-05-04T02:56:28.767Z,101476.83
2023-05-04T02:59:00.612Z,101477.11
2023-05-04T03:01:34.175Z,101481.03
2023-05-04T03:04:08.054Z,101480.52
2023-05-04T03:06:39.879Z,101477.54
2023-05-04T03:09:12.451Z,101479.14
2023-05-04T03:11:44.297Z,101474.09
2023-05-04T03:14:16.238Z,101477.61
2023-05-04T03:16:48.041Z,101478.67
2023-05-04T03:19:22.412Z,101478.03
2023-05-04T03:21:54.159Z,101478.41
2023-05-04T03:24:26.231Z,101478.94
2023-05-04T03:26:57.854Z,101477.51
2023-05-04T03:29:30.051Z,101475.14
2023-05-04T03:32:02.235Z,101478.38
2023-05-04T03:34:34.282Z,101479.02
2023-05-04T03:37:08.105Z,101476.40
2023-05-04T03:39:40.118Z,101480.14
2023-05-04T03:42:13.057Z,101481.17
2023-05-04T03:44:46.501Z,101480.44
2023-05-04T03:47:16.793Z,101485.07
2023-05-04T03:49:48.686Z,101480.73
2023-05-04T03:52:20.531Z,101485.92
2023-05-04T03:54:52.306Z,101481.07
2023-05-04T03:57:24.706Z,101480.72
2023-05-04T03:59:57.908Z,101480.73
2023-05-04T04:02:30.654Z,101481.93
2023-05-04T04:05:02.947Z,101478.30
2023-05-04T04:07:34.726Z,101483.02
2023-05-04T04:10:07.705Z,101483.01
2023-05-04T04:12:39.482Z,101481.89
2023-05-04T04:15:12.266Z,101478.62
2023-05-04T04:17:44.160Z,101486.79
2023-05-04T04:20:17.588Z,101486.86
2023-05-04T04:22:49.262Z,101484.19
2023-05-04T04:25:21.316Z,101491.32
2023-05-04T04:27:53.269Z,101487.59
2023-05-04T04:30:24.981Z,101484.97
2023-05-04T04:32:57.286Z,101484.12
2023-05-04T04:35:29.066Z,101487.41
2023-05-04T04:38:03.408Z,101486.21
2023-05-04T04:40:35.959Z,101480.95
2023-05-04T04:43:07.646Z,101482.42
2023-05-04T04:45:41.210Z,101485.69
2023-05-04T04:48:14.092Z,101487.92
2023-05-04T04:50:44.541Z,101478.66
2023-05-04T04:53:16.276Z,101477.29
2023-05-04T04:55:48.244Z,101475.69
2023-05-04T04:58:19.904Z,101474.27
2023-05-04T05:00:52.198Z,101474.46
2023-05-04T05:03:24.013Z,101476.48
2023-05-04T05:05:56.336Z,101481.71
2023-05-04T05:08:28.140Z,101483.55
2023-05-04T05:11:00.178Z,101483.94
2023-05-04T05:13:33.384Z,101485.41
2023-05-04T05:16:05.970Z,101489.92
2023-05-04T05:18:36.347Z,101485.63
2023-05-04T05:21:09.156Z,101484.20
2023-05-04T05:23:39.318Z,101486.38
2023-05-04T05:26:11.288Z,101487.64
2023-05-04T05:28:43.253Z,101493.41
2023-05-04T05:31:15.030Z,101495.94
2023-05-04T05:33:46.783Z,101500.98
2023-05-04T05:36:18.692Z,101502.41
2023-05-04T05:38:50.705Z,101502.05
2023-05-04T05:41:23.113Z,101496.98
2023-05-04T05:43:54.760Z,101495.89
2023-05-04T05:46:28.016Z,101490.83
2023-05-04T05:49:00.123Z,101487.37
2023-05-04T05:51:31.980Z,101494.39
2023-05-04T05:54:03.791Z,101494.73
2023-05-04T05:56:35.611Z,101494.89
2023-05-04T05:59:07.358Z,101498.12
2023-05-04T06:01:39.480Z,101495.73
2023-05-04T06:04:11.533Z,101496.42
2023-05-04T06:06:45.810Z,101494.60
2023-05-04T06:09:18.398Z,101497.66
2023-05-04T06:11:50.391Z,101497.80
2023-05-04T06:14:22.121Z,101497.75
2023-05-04T06:16:53.960Z,101496.98
2023-05-04T06:19:26.641Z,101496.39
2023-05-04T06:21:56.890Z,101492.54
2023-05-04T06:24:29.848Z,101486.89
2023-05-04T06:27:02.404Z,101486.83
2023-05-04T06:29:34.185Z,101487.48
2023-05-04T06:32:06.985Z,101487.08
2023-05-04T06:34:38.996Z,101494.59
2023-05-04T06:37:12.976Z,101488.56
2023-05-04T06:39:46.304Z,101487.41
2023-05-04T06:42:18.277Z,101486.62
2023-05-04T06:44:53.508Z,101490.15
2023-05-04T06:47:25.405Z,101491.88
2023-05-04T06:49:58.049Z,101491.64
2023-05-04T06:52:29.720Z,101493.00
2023-05-04T06:55:02.098Z,101493.45
2023-05-04T06:57:33.863Z,101492.13
2023-05-04T07:00:08.286Z,101492.25
2023-05-04T07:02:39.983Z,101490.57
2023-05-04T07:05:12.484Z,101493.19
2023-05-04T07:07:44.234Z,101490.57
2023-05-04T07:10:15.974Z,101493.35
2023-05-04T07:12:54.410Z,101497.44
2023-05-04T07:15:28.550Z,101489.60
2023-05-04T07:18:01.444Z,101490.91
2023-05-04T07:20:33.746Z,101489.86
2023-05-04T07:23:05.713Z,101487.42
2023-05-04T07:25:37.494Z,101484.25
2023-05-04T07:28:09.178Z,101485.10
2023-05-04T07:30:41.028Z,101479.06
2023-05-04T07:33:13.007Z,101477.52
2023-05-04T07:35:44.817Z,101478.70
2023-05-04T07:38:16.492Z,101478.19
2023-05-04T07:40:48.175Z,101483.51
2023-05-04T07:43:20.218Z,101481.65
2023-05-04T07:45:53.727Z,101475.25
2023-05-04T07:48:26.549Z,101473.31
2023-05-04T07:50:59.130Z,101476.13
2023-05-04T07:53:30.987Z,101478.38
2023-05-04T07:56:11.161Z,101477.76
2023-05-04T07:58:43.043Z,101474.08
2023-05-04T08:01:15.120Z,101471.10
2023-05-04T08:03:46.835Z,101465.94
2023-05-04T08:06:18.592Z,101474.23
2023-05-04T08:09:00.654Z,101468.52
2023-05-04T08:11:38.293Z,101467.76
2023-05-04T08:14:10.568Z,101468.29
2023-05-04T08:16:42.373Z,101465.66
2023-05-04T08:19:14.471Z,101462.30
2023-05-04T08:21:46.146Z,101460.17
2023-05-04T08:24:19.366Z,101462.17
2023-05-04T08:27:03.701Z,101464.15
2023-05-04T08:29:39.148Z,101457.31
2023-05-04T08:32:11.108Z,101460.41
2023-05-04T08:34:43.020Z,101460.80
2023-05-04T08:37:14.857Z,101459.66
2023-05-04T08:39:47.114Z,101460.29
2023-05-04T08:42:29.849Z,101461.69
2023-05-04T08:45:01.880Z,101457.39
2023-05-04T08:47:33.800Z,101458.88
2023-05-04T08:50:07.489Z,101456.52
2023-05-04T08:52:44.172Z,101453.70
2023-05-04T08:55:17.670Z,101458.06
2023-05-04T08:57:51.449Z,101455.52
2023-05-04T09:00:24.296Z,101462.05
2023-05-04T09:02:56.904Z,101459.54
2023-05-04T09:05:29.306Z,101455.92
2023-05-04T09:08:01.032Z,101456.06
2023-05-04T09:10:34.276Z,101463.19
2023-05-04T09:13:06.225Z,101465.03
2023-05-04T09:15:38.271Z,101465.23
2023-05-04T09:18:10.413Z,101461.77
2023-05-04T09:20:49.271Z,101457.21
2023-05-04T09:23:22.397Z,101455.11
2023-05-04T09:25:55.225Z,101454.48
2023-05-04T09:28:35.442Z,101457.30
2023-05-04T09:31:08.182Z,101450.00
2023-05-04T09:33:41.532Z,101447.33
2023-05-04T09:36:18.546Z,101444.27
2023-05-04T09:38:50.873Z,101447.69
2023-05-04T09:41:34.290Z,101446.29
2023-05-04T09:44:06.568Z,101448.31
2023-05-04T09:46:38.636Z,101443.15
2023-05-04T09:49:10.843Z,101442.80
2023-05-04T09:51:43.040Z,101433.36
2023-05-04T09:54:17.067Z,101425.61
2023-05-04T09:56:53.423Z,101423.84
2023-05-04T09:59:31.412Z,101418.40
2023-05-04T10:02:14.501Z,101415.90
2023-05-04T10:04:58.406Z,101416.60
2023-05-04T10:07:32.785Z,101417.38
2023-05-04T10:10:05.805Z,101416.06
2023-05-04T10:12:37.570Z,101411.31
2023-05-04T10:15:12.666Z,101403.38
2023-05-04T10:18:02.497Z,101403.39
2023-05-04T10:20:54.770Z,101405.82
2023-05-04T10:23:47.984Z,101406.27
2023-05-04T10:26:42.750Z,101399.83
2023-05-04T10:29:23.907Z,101401.36
2023-05-04T10:31:56.829Z,101402.56
2023-05-04T10:34:30.717Z,101402.88
2023-05-04T10:37:04.116Z,101397.52
2023-05-04T10:39:36.431Z,101389.40
2023-05-04T10:42:09.353Z,101379.99
2023-05-04T10:44:53.058Z,101376.20
2023-05-04T10:47:33.265Z,101372.52
2023-05-04T10:50:06.952Z,101370.25
2023-05-04T10:52:50.240Z,101367.15
2023-05-04T10:55:23.191Z,101372.80
2023-05-04T10:57:56.733Z,101366.94
2023-05-04T11:00:39.395Z,101366.96
2023-05-04T11:03:12.108Z,101353.27
2023-05-04T11:05:45.025Z,101350.11
2023-05-04T11:08:21.872Z,101354.18
2023-05-04T11:11:03.526Z,101357.48
2023-05-04T11:13:37.194Z,101359.15
2023-05-04T11:16:09.575Z,101360.75
2023-05-04T11:18:42.058Z,101357.79
2023-05-04T11:21:13.753Z,101359.42
2023-05-04T11:23:45.474Z,101352.42
2023-05-04T11:26:17.218Z,101347.15
2023-05-04T11:28:49.323Z,101337.80
2023-05-04T11:31:23.739Z,101337.09
2023-05-04T11:33:56.359Z,101333.85
2023-05-04T11:36:28.715Z,101328.48
2023-05-04T11:39:00.978Z,101317.89
2023-05-04T11:41:32.865Z,101309.23
2023-05-04T11:44:06.244Z,101313.88
2023-05-04T11:46:38.434Z,101319.83
2023-05-04T11:49:10.365Z,101316.63
2023-05-04T11:51:42.364Z,101317.73
2023-05-04T11:54:23.420Z,101322.83
2023-05-04T11:56:56.006Z,101312.64
2023-05-04T11:59:27.719Z,101310.04
2023-05-04T12:02:00.110Z,101310.90
2023-05-04T12:04:35.216Z,101311.98
2023-05-04T12:07:10.373Z,101310.52
2023-05-04T12:09:49.422Z,101311.23
2023-05-04T12:12:22.148Z,101313.25
2023-05-04T12:14:53.164Z,101308.50
2023-05-04T12:17:25.171Z,101298.52
2023-05-04T12:19:58.094Z,101305.65
2023-05-04T12:22:35.739Z,101302.90
2023-05-04T12:25:11.236Z,101304.57
2023-05-04T12:27:44.392Z,101304.25
2023-05-04T12:30:16.803Z,101301.83
2023-05-04T12:32:48.507Z,101305.67
2023-05-04T12:35:20.817Z,101299.32
2023-05-04T12:37:53.002Z,101298.11
2023-05-04T12:40:28.604Z,101289.62
2023-05-04T12:43:00.805Z,101289.09
2023-05-04T12:45:32.735Z,101281.58
2023-05-04T12:48:04.912Z,101277.15
2023-05-04T12:50:36.668Z,101276.27
2023-05-04T12:53:08.370Z,101273.23
2023-05-04T12:55:41.278Z,101264.73
2023-05-04T12:58:13.261Z,101264.09
2023-05-04T13:00:46.148Z,101267.90
2023-05-04T13:03:18.335Z,101252.80
2023-05-04T13:05:50.942Z,101261.81
2023-05-04T13:08:23.558Z,101260.51
2023-05-04T13:10:53.739Z,101258.65
2023-05-04T13:13:28.953Z,101248.71
2023-05-04T13:16:00.770Z,101240.01
2023-05-04T13:18:32.782Z,101238.48
2023-05-04T13:21:04.749Z,101238.73
2023-05-04T13:23:36.863Z,101226.64
2023-05-04T13:26:08.598Z,101224.95
2023-05-04T13:28:40.904Z,101227.63
2023-05-04T13:31:12.787Z,101225.77
2023-05-04T13:33:45.374Z,101230.31
2023-05-04T13:36:15.556Z,101225.84
2023-05-04T13:38:47.664Z,101228.89
2023-05-04T13:41:19.527Z,101225.61
2023-05-04T13:43:51.884Z,101219.63
2023-05-04T13:46:24.317Z,101211.86
2023-05-04T13:48:57.168Z,101206.24
2023-05-04T13:51:29.169Z,101206.00
2023-05-04T13:54:02.698Z,101204.58
2023-05-04T13:56:34.645Z,101200.77
2023-05-04T13:59:06.496Z,101202.02
2023-05-04T14:01:38.638Z,101193.86
2023-05-04T14:04:10.953Z,101193.33
2023-05-04T14:06:43.109Z,101180.59
2023-05-04T14:09:15.130Z,101172.61
2023-05-04T14:11:47.646Z,101167.98
2023-05-04T14:14:18.083Z,101170.63
2023-05-04T14:16:49.879Z,101170.69
2023-05-04T14:19:21.708Z,101168.48
2023-05-04T14:21:53.552Z,101173.73
2023-05-04T14:24:26.256Z,101174.20
2023-05-04T14:27:07.132Z,101170.25
2023-05-04T14:29:39.157Z,101167.71
2023-05-04T14:32:11.379Z,101168.55
2023-05-04T14:34:43.311Z,101170.34
2023-05-04T14:37:15.054Z,101162.13
2023-05-04T14:39:47.592Z,101160.63
2023-05-04T14:42:19.299Z,101161.30
2023-05-04T14:44:51.149Z,101156.03
2023-05-04T14:47:22.957Z,101149.26
2023-05-04T14:49:54.654Z,101143.11
2023-05-04T14:52:26.403Z,101146.21
2023-05-04T14:54:58.088Z,101138.79
2023-05-04T14:57:29.880Z,101135.08
2023-05-04T15:00:07.548Z,101133.24
2023-05-04T15:02:40.123Z,101132.92
2023-05-04T15:05:12.692Z,101136.63
2023-05-04T15:07:44.549Z,101135.91
2023-05-04T15:10:16.450Z,101136.57
2023-05-04T15:12:48.452Z,101137.88
2023-05-04T15:15:20.636Z,101135.66
2023-05-04T15:17:52.630Z,101135.82
2023-05-04T15:20:24.493Z,101129.29
2023-05-04T15:22:56.290Z,101128.84
2023-05-04T15:25:28.253Z,101127.60
2023-05-04T15:27:59.975Z,101123.99
2023-05-04T15:30:31.708Z,101119.58
2023-05-04T15:33:05.508Z,101121.55
2023-05-04T15:35:38.384Z,101108.30
2023-05-04T15:38:08.948Z,101105.66
2023-05-04T15:40:40.950Z,101102.42
2023-05-04T15:43:13.126Z,101101.52
2023-05-04T15:45:44.828Z,101094.14
2023-05-04T15:48:16.561Z,101098.05
2023-05-04T15:50:48.344Z,101102.52
2023-05-04T15:53:20.213Z,101105.92
2023-05-04T15:55:52.395Z,101101.80
2023-05-04T15:58:24.274Z,101096.58
2023-05-04T16:00:56.218Z,101091.52
2023-05-04T16:03:28.024Z,101089.42
2023-05-04T16:05:59.725Z,101087.40
2023-05-04T16:08:31.678Z,101083.40
2023-05-04T16:11:04.232Z,101083.00
2023-05-04T16:13:35.147Z,101084.25
2023-05-04T16:16:08.238Z,101080.38
2023-05-04T16:18:40.096Z,101077.30
2023-05-04T16:21:14.014Z,101079.13
2023-05-04T16:23:46.185Z,101077.48
2023-05-04T16:26:18.069Z,101075.23
2023-05-04T16:28:49.837Z,101067.30
2023-05-04T16:31:22.082Z,101074.88
2023-05-04T16:33:54.407Z,101075.16
2023-05-04T16:36:26.735Z,101072.08
2023-05-04T16:38:58.496Z,101072.20
2023-05-04T16:41:30.831Z,101065.63
2023-05-04T16:44:02.451Z,101062.89
2023-05-04T16:46:34.305Z,101059.17
2023-05-04T16:49:08.769Z,101056.08
2023-05-04T16:51:43.422Z,101055.48
2023-05-04T16:54:16.337Z,101051.50
2023-05-04T16:56:48.424Z,101054.44
2023-05-04T16:59:20.272Z,101052.60
2023-05-04T17:01:52.563Z,101055.08
2023-05-04T17:04:25.332Z,101055.04
2023-05-04T17:06:57.016Z,101062.27
2023-05-04T17:09:28.920Z,101055.27
2023-05-04T17:12:00.995Z,101055.88
2023-05-04T17:14:33.063Z,101054.56
2023-05-04T17:17:04.768Z,101055.71
2023-05-04T17:19:39.120Z,101061.04
2023-05-04T17:22:11.636Z,101062.16
2023-05-04T17:24:45.406Z,101063.45
2023-05-04T17:27:17.708Z,101061.05
2023-05-04T17:29:49.400Z,101054.73
2023-05-04T17:32:21.231Z,101058.52
2023-05-04T17:34:52.938Z,101063.74
2023-05-04T17:37:24.725Z,101055.09
2023-05-04T17:39:56.519Z,101065.86
2023-05-04T17:42:29.261Z,101065.41
2023-05-04T17:44:59.488Z,101066.02
2023-05-04T17:47:31.157Z,101064.13
2023-05-04T17:50:03.201Z,101066.95
2023-05-04T17:52:35.267Z,101061.62
2023-05-04T17:55:08.294Z,101062.38
2023-05-04T17:57:40.231Z,101064.07
2023-05-04T18:00:14.440Z,101066.57
2023-05-04T18:02:47.068Z,101065.26
2023-05-04T18:05:19.475Z,101068.50
2023-05-04T18:07:51.366Z,101066.61
2023-05-04T18:10:23.097Z,101069.05
2023-05-04T18:12:56.593Z,101065.10
2023-05-04T18:15:28.406Z,101067.11
2023-05-04T18:18:00.583Z,101071.02
2023-05-04T18:20:32.276Z,101073.66
2023-05-04T18:23:03.951Z,101077.29
2023-05-04T18:25:37.262Z,101077.41
2023-05-04T18:28:10.125Z,101082.76
2023-05-04T18:30:41.927Z,101079.71
2023-05-04T18:33:14.089Z,101079.95
2023-05-04T18:35:46.200Z,101082.42
2023-05-04T18:38:17.990Z,101085.64
2023-05-04T18:40:53.042Z,101087.71
2023-05-04T18:43:24.835Z,101087.20
2023-05-04T18:45:56.708Z,101086.25
2023-05-04T18:48:28.583Z,101089.30
2023-05-04T18:51:01.082Z,101089.27
2023-05-04T18:53:33.243Z,101091.73
2023-05-04T18:56:06.293Z,101096.65
2023-05-04T18:58:38.884Z,101099.81
2023-05-04T19:01:10.997Z,101097.77
2023-05-04T19:03:44.844Z,101102.88
2023-05-04T19:06:16.564Z,101101.47
2023-05-04T19:08:48.331Z,101105.03
2023-05-04T19:11:20.012Z,101107.67
2023-05-04T19:13:51.696Z,101108.09
2023-05-04T19:16:23.419Z,101106.19
2023-05-04T19:18:55.642Z,101107.85
2023-05-04T19:21:28.592Z,101112.17
2023-05-04T19:24:00.434Z,101112.20
2023-05-04T19:26:32.300Z,101108.98
2023-05-04T19:29:04.276Z,101111.00
2023-05-04T19:31:36.283Z,101109.27
2023-05-04T19:34:08.154Z,101106.08
2023-05-04T19:36:39.938Z,101104.14
2023-05-04T19:39:11.939Z,101102.95
2023-05-04T19:41:43.790Z,101104.65
2023-05-04T19:44:15.724Z,101102.36
2023-05-04T19:46:51.564Z,101103.25
2023-05-04T19:49:24.849Z,101097.09
2023-05-04T19:51:56.842Z,101101.93
2023-05-04T19:54:28.740Z,101098.70
2023-05-04T19:57:00.986Z,101093.95
2023-05-04T19:59:32.666Z,101088.93
2023-05-04T20:02:04.774Z,101079.65
2023-05-04T20:04:36.997Z,101085.58
2023-05-04T20:07:08.844Z,101083.58
2023-05-04T20:09:40.584Z,101083.27
2023-05-04T20:12:12.367Z,101082.60
2023-05-04T20:14:44.294Z,101077.98
2023-05-04T20:17:15.994Z,101074.28
2023-05-04T20:19:48.255Z,101074.29
2023-05-04T20:22:20.152Z,101073.70
2023-05-04T20:24:51.891Z,101071.95
2023-05-04T20:27:26.114Z,101073.09
2023-05-04T20:29:57.893Z,101071.39
2023-05-04T20:32:31.117Z,101077.58
2023-05-04T20:35:03.084Z,101076.13
2023-05-04T20:37:34.908Z,101078.31
2023-05-04T20:40:08.614Z,101076.80
2023-05-04T20:42:40.742Z,101080.27
2023-05-04T20:45:13.306Z,101080.49
2023-05-04T20:47:45.780Z,101076.86
2023-05-04T20:50:18.859Z,101077.09
2023-05-04T20:52:50.611Z,101077.13
2023-05-04T20:55:22.889Z,101081.54
2023-05-04T20:57:54.698Z,101079.41
2023-05-04T21:00:26.589Z,101080.61
2023-05-04T21:02:58.601Z,101084.31
2023-05-04T21:05:30.538Z,101077.29
2023-05-04T21:08:02.304Z,101077.87
2023-05-04T21:10:34.152Z,101078.23
2023-05-04T21:13:06.038Z,101072.80
2023-05-04T21:15:38.516Z,101080.39
2023-05-04T21:18:10.789Z,101080.95
2023-05-04T21:20:41.596Z,101078.69
2023-05-04T21:23:13.747Z,101072.66
2023-05-04T21:25:45.728Z,101067.73
2023-05-04T21:28:17.471Z,101072.06
2023-05-04T21:30:49.184Z,101065.38
2023-05-04T21:33:20.929Z,101071.65
2023-05-04T21:35:52.678Z,101073.55
2023-05-04T21:38:24.414Z,101074.36
2023-05-04T21:40:56.165Z,101074.30
2023-05-04T21:43:28.110Z,101073.52
2023-05-04T21:45:59.831Z,101072.25
2023-05-04T21:48:32.999Z,101070.02
2023-05-04T21:51:04.817Z,101068.81
2023-05-04T21:53:36.691Z,101069.05
2023-05-04T21:56:12.579Z,101069.64
2023-05-04T21:58:44.505Z,101065.41
2023-05-04T22:01:18.952Z,101070.88
2023-05-04T22:03:52.693Z,101070.70
2023-05-04T22:06:25.799Z,101071.55
2023-05-04T22:08:57.704Z,101070.16
2023-05-04T22:11:29.646Z,101065.39
2023-05-04T22:14:01.697Z,101066.39
2023-05-04T22:16:33.493Z,101063.93
2023-05-04T22:19:05.938Z,101061.66
2023-05-04T22:21:39.927Z,101063.30
2023-05-04T22:24:11.989Z,101065.33
2023-05-04T22:26:43.738Z,101063.22
2023-05-04T22:29:15.482Z,101068.85
2023-05-04T22:31:47.405Z,101070.39
2023-05-04T22:34:19.131Z,101075.44
2023-05-04T22:36:51.144Z,101072.68
2023-05-04T22:39:22.976Z,101071.63
2023-05-04T22:41:54.697Z,101072.95
2023-05-04T22:44:26.557Z,101068.91
2023-05-04T22:46:58.763Z,101071.31
2023-05-04T22:49:30.572Z,101071.98
2023-05-04T22:52:02.299Z,101068.73
2023-05-04T22:54:34.009Z,101074.33
2023-05-04T22:57:06.385Z,101072.45
2023-05-04T22:59:38.100Z,101074.71
2023-05-04T23:02:09.829Z,101073.05
2023-05-04T23:04:42.378Z,101071.41
2023-05-04T23:07:14.600Z,101070.68
2023-05-04T23:09:47.334Z,101067.64
2023-05-04T23:12:17.581Z,101065.62
2023-05-04T23:14:52.833Z,101066.17
2023-05-04T23:17:24.865Z,101065.49
2023-05-04T23:19:56.688Z,101064.05
2023-05-04T23:22:28.496Z,101064.04
2023-05-04T23:25:02.276Z,101064.02
2023-05-04T23:27:33.995Z,101064.25
2023-05-04T23:30:06.911Z,101060.06
2023-05-04T23:32:39.024Z,101058.10
2023-05-04T23:35:14.013Z,101053.35
2023-05-04T23:37:45.736Z,101052.77
2023-05-04T23:40:17.600Z,101056.75
2023-05-04T23:42:52.151Z,101063.42
2023-05-04T23:45:23.963Z,101066.94
2023-05-04T23:47:55.762Z,101064.52
2023-05-04T23:50:27.549Z,101069.89
2023-05-04T23:52:59.344Z,101064.27
2023-05-04T23:55:31.075Z,101057.83
2023-05-04T23:58:02.722Z,101058.65
